Terminal Aerodrome Forecast
Issued by NWS

Home | Current Version | Previous Version | Text Only | Print | Product List | Glossary On
Versions: 1 2 3 4 5 6 7 8 9 10 11 12 13 14 15 16 17 18 19 20 21 22 23 24 25 26 27 28 29 30
000
FTUS42 KGSP 230259 AAA
TAFHKY
TAF AMD
KHKY 230259Z 2303/2324 05009G17KT P6SM -SHRA OVC006
      TEMPO 2304/2308 1SM -SHRA BR
     FM230800 15007KT 1SM BR VCTS OVC003CB
     FM231000 17005KT 3/4SM -TSRA BR OVC003CB
     FM231400 34003KT 2SM -SHRA OVC003
     FM232000 32010KT P6SM -SHRA OVC045=

USA.gov is the U.S. government's official web portal to all federal, state and local government web resources and services.